M. Luther — WDC7372 — position and weather

sailwx.info

Track history (hours):
 
Tides and Currents Weather Stations Pressure Air Temp Water Temp Dewpoint Dewpoint Depression Visibility Wind Speed Wind Dir Waves Ship Positions

M. Luther

More information available from US FCC via Universal Licensing System and Coast Guard Vessel Documentation Center.

Last reported at 2014-Jul-31 00:34 UTC. Time now 2014-Jul-31 01:28 UTC.
Position N 48°56' W 123°05'.

Length 28 m; draft 4.1 m.

Type: Tow > 200 m length. MMSI: 367070410.

Date/timePositionNaut miles runAvg speedWind from/ knotsBaromVisibWave heightAir tempDewpointWater temp
2014-Jul-31 00:34N 48°56' W 123°05'7 6.8
2014-Jul-30 23:34N 48°51' W 122°57'8 8.2
2014-Jul-30 22:33N 48°46' W 122°47'7 7.4
2014-Jul-30 21:33N 48°40' W 122°43'6 6.4
2014-Jul-30 20:34N 48°33' W 122°45'6 6.0
2014-Jul-30 19:33N 48°27' W 122°44'6 6.2
2014-Jul-30 18:32N 48°21' W 122°45'8 7.4
2014-Jul-30 17:31N 48°14' W 122°48'1010.4
2014-Jul-30 16:33N 48°06' W 122°39'10 9.7
2014-Jul-30 15:33N 47°57' W 122°32'3 8.5
2014-Jul-30 15:14N 47°56' W 122°29'6 8.6
2014-Jul-30 14:33N 47°50' W 122°27'0 7.2
2014-Jul-30 14:30N 47°49' W 122°27'7 7.6
2014-Jul-30 13:33N 47°42' W 122°26'1 7.1
2014-Jul-30 13:29N 47°42' W 122°27'6 6.9
2014-Jul-30 12:33N 47°36' W 122°22'0 5.0
2014-Jul-30 12:29N 47°36' W 122°22'3 0.4
2014-Jul-30 05:21N 47°33' W 122°21'0 0.0
2014-Jul-30 05:02N 47°33' W 122°21'0 0.0
2014-Jul-30 04:30N 47°33' W 122°21'0 0.0
2014-Jul-30 04:27N 47°33' W 122°21'0 0.0
2014-Jul-30 03:33N 47°33' W 122°21'0 0.0
2014-Jul-30 03:32N 47°33' W 122°21'0 0.0
2014-Jul-30 02:27N 47°33' W 122°21'0 0.0
2014-Jul-30 02:26N 47°33' W 122°21'0 0.0
2014-Jul-30 01:27N 47°33' W 122°21'0 0.0
2014-Jul-30 01:26N 47°33' W 122°21'0 0.0
2014-Jul-30 00:24N 47°33' W 122°21'0 0.0
2014-Jul-29 22:35N 47°33' W 122°21'0 0.0
2014-Jul-29 22:18N 47°33' W 122°21'0 0.0
2014-Jul-29 20:44N 47°33' W 122°21'  
2014-Jul-24 03:07N 47°33' W 122°21'0 0.0
2014-Jul-24 03:03N 47°33' W 122°21'0 0.0
2014-Jul-24 02:33N 47°33' W 122°21'0 0.0
2014-Jul-24 02:33N 47°33' W 122°21'0 0.0
2014-Jul-24 01:13N 47°33' W 122°21'0 0.0
2014-Jul-24 01:11N 47°33' W 122°21'0 0.3
2014-Jul-24 00:33N 47°33' W 122°21'0 7.7
2014-Jul-24 00:30N 47°34' W 122°21'3 3.3
2014-Jul-23 23:33N 47°36' W 122°24'0 4.3
2014-Jul-23 23:30N 47°37' W 122°24'6 6.0
2014-Jul-23 22:32N 47°42' W 122°28'4 7.3
2014-Jul-23 22:02N 47°45' W 122°27'4 7.3
2014-Jul-23 21:33N 47°49' W 122°28'0 7.8
2014-Jul-23 21:33N 47°49' W 122°28'8 7.8
2014-Jul-23 20:33N 47°56' W 122°32'1 9.9
2014-Jul-23 20:28N 47°57' W 122°33'8 8.9
2014-Jul-23 19:32N 48°04' W 122°39'7 9.4
2014-Jul-23 18:47N 48°10' W 122°45'3 9.2
2014-Jul-23 18:30N 48°11' W 122°48'1 8.5
2014-Jul-23 18:26N 48°12' W 122°48'8 8.6
2014-Jul-23 17:31N 48°20' W 122°47'9 9.5
2014-Jul-23 16:33N 48°29' W 122°45'1010.2
2014-Jul-23 15:33N 48°39' W 122°44'8 8.4
2014-Jul-23 14:33N 48°46' W 122°51'9 8.7
2014-Jul-23 13:33N 48°51' W 123°02'9 8.8
2014-Jul-23 12:33N 48°56' W 123°12'8 8.5
2014-Jul-23 11:34N 49°03' W 123°21'7 7.1
2014-Jul-23 10:33N 49°08' W 123°14'7 7.1
2014-Jul-23 09:33N 49°09' W 123°03'2 1.9
2014-Jul-23 08:33N 49°09' W 123°00'0 0.0
2014-Jul-23 07:31N 49°09' W 123°00'0 0.0
2014-Jul-23 06:31N 49°09' W 123°00'0 0.0
2014-Jul-23 05:31N 49°09' W 123°00'0 0.0
2014-Jul-23 04:31N 49°09' W 123°00'0 0.0
2014-Jul-23 03:31N 49°09' W 123°00'0 0.0
2014-Jul-23 02:31N 49°09' W 123°00'0 0.0
2014-Jul-23 01:31N 49°09' W 123°00'0 0.0
2014-Jul-23 00:31N 49°09' W 123°00'0 0.0
2014-Jul-22 23:25N 49°09' W 123°00'0 0.0
2014-Jul-22 22:31N 49°09' W 123°00'0 0.0
2014-Jul-22 21:31N 49°09' W 123°00'0 0.0
2014-Jul-22 20:34N 49°09' W 123°00'0 0.0
2014-Jul-22 19:30N 49°09' W 123°00'0 0.0
2014-Jul-22 18:30N 49°09' W 123°00'0 0.0
2014-Jul-22 17:33N 49°09' W 123°00'0 0.0
2014-Jul-22 16:33N 49°09' W 123°00'0 0.0
2014-Jul-22 15:33N 49°09' W 123°00'0 0.0
2014-Jul-22 14:33N 49°09' W 123°00'0 0.0
2014-Jul-22 13:27N 49°09' W 123°00'0 0.0
2014-Jul-22 12:33N 49°09' W 123°00'0 0.0
2014-Jul-22 11:33N 49°09' W 123°00'0 0.0
2014-Jul-22 10:33N 49°09' W 123°00'0 0.0
2014-Jul-22 09:33N 49°09' W 123°00'0 0.0
2014-Jul-22 08:33N 49°09' W 123°00'0 0.0
2014-Jul-22 07:33N 49°09' W 123°00'0 0.0
2014-Jul-22 06:33N 49°09' W 123°00'0 0.0
2014-Jul-22 05:33N 49°09' W 123°00'0 0.0
2014-Jul-22 04:33N 49°09' W 123°00'0 0.0
2014-Jul-22 03:33N 49°09' W 123°00'0 0.0
2014-Jul-22 02:33N 49°09' W 123°00'0 0.0
2014-Jul-22 01:33N 49°09' W 123°00'0 0.0
2014-Jul-22 00:33N 49°09' W 123°00'0 0.0
2014-Jul-21 23:33N 49°09' W 123°00'0 0.0
2014-Jul-21 22:33N 49°09' W 123°00'0 0.0
2014-Jul-21 21:33N 49°09' W 123°00'0 0.0
2014-Jul-21 20:33N 49°09' W 123°00'0 0.0
2014-Jul-21 20:18N 49°09' W 123°00'0 0.0
2014-Jul-21 19:33N 49°09' W 123°00'0 0.0
2014-Jul-21 18:30N 49°09' W 123°00'0 0.0
2014-Jul-21 17:27N 49°09' W 123°00'0 0.0
2014-Jul-21 16:33N 49°09' W 123°00'0 0.0
2014-Jul-21 15:33N 49°09' W 123°00'0 0.0
2014-Jul-21 14:33N 49°09' W 123°00'0 0.0
2014-Jul-21 13:33N 49°09' W 123°00'0 0.0
2014-Jul-21 12:33N 49°09' W 123°00'0 0.0
2014-Jul-21 11:33N 49°09' W 123°00'0 0.0
2014-Jul-21 10:30N 49°09' W 123°00'0 0.0
2014-Jul-21 09:33N 49°09' W 123°00'0 0.0
2014-Jul-21 08:29N 49°09' W 123°00'0 0.0
2014-Jul-21 07:32N 49°09' W 123°00'0 0.0
2014-Jul-21 06:32N 49°09' W 123°00'0 0.0
2014-Jul-21 05:32N 49°09' W 123°00'0 0.0
2014-Jul-21 04:32N 49°09' W 123°00'0 0.0
2014-Jul-21 03:32N 49°09' W 123°00'0 0.0
2014-Jul-21 02:32N 49°09' W 123°00'0 0.0
2014-Jul-21 01:32N 49°09' W 123°00'  
Track history (hours):
 
Tides and Currents Weather Stations Pressure Air Temp Water Temp Dewpoint Dewpoint Depression Visibility Wind Speed Wind Dir Waves Ship Positions

M. Luther

More information available from US FCC via Universal Licensing System and Coast Guard Vessel Documentation Center.

Last reported at 2014-Jul-31 00:34 UTC. Time now 2014-Jul-31 01:28 UTC.
Position N 48°56' W 123°05'.

Length 28 m; draft 4.1 m.

Type: Tow > 200 m length. MMSI: 367070410.

Date/timePositionNaut miles runAvg speedWind from/ knotsBaromVisibWave heightAir tempDewpointWater temp
2014-Jul-31 00:34N 48°56' W 123°05'7 6.8
2014-Jul-30 23:34N 48°51' W 122°57'8 8.2
2014-Jul-30 22:33N 48°46' W 122°47'7 7.4
2014-Jul-30 21:33N 48°40' W 122°43'6 6.4
2014-Jul-30 20:34N 48°33' W 122°45'6 6.0
2014-Jul-30 19:33N 48°27' W 122°44'6 6.2
2014-Jul-30 18:32N 48°21' W 122°45'8 7.4
2014-Jul-30 17:31N 48°14' W 122°48'1010.4
2014-Jul-30 16:33N 48°06' W 122°39'10 9.7
2014-Jul-30 15:33N 47°57' W 122°32'3 8.5
2014-Jul-30 15:14N 47°56' W 122°29'6 8.6
2014-Jul-30 14:33N 47°50' W 122°27'0 7.2
2014-Jul-30 14:30N 47°49' W 122°27'7 7.6
2014-Jul-30 13:33N 47°42' W 122°26'1 7.1
2014-Jul-30 13:29N 47°42' W 122°27'6 6.9
2014-Jul-30 12:33N 47°36' W 122°22'0 5.0
2014-Jul-30 12:29N 47°36' W 122°22'3 0.4
2014-Jul-30 05:21N 47°33' W 122°21'0 0.0
2014-Jul-30 05:02N 47°33' W 122°21'0 0.0
2014-Jul-30 04:30N 47°33' W 122°21'0 0.0
2014-Jul-30 04:27N 47°33' W 122°21'0 0.0
2014-Jul-30 03:33N 47°33' W 122°21'0 0.0
2014-Jul-30 03:32N 47°33' W 122°21'0 0.0
2014-Jul-30 02:27N 47°33' W 122°21'0 0.0
2014-Jul-30 02:26N 47°33' W 122°21'0 0.0
2014-Jul-30 01:27N 47°33' W 122°21'0 0.0
2014-Jul-30 01:26N 47°33' W 122°21'0 0.0
2014-Jul-30 00:24N 47°33' W 122°21'0 0.0
2014-Jul-29 22:35N 47°33' W 122°21'0 0.0
2014-Jul-29 22:18N 47°33' W 122°21'0 0.0
2014-Jul-29 20:44N 47°33' W 122°21'  
2014-Jul-24 03:07N 47°33' W 122°21'0 0.0
2014-Jul-24 03:03N 47°33' W 122°21'0 0.0
2014-Jul-24 02:33N 47°33' W 122°21'0 0.0
2014-Jul-24 02:33N 47°33' W 122°21'0 0.0
2014-Jul-24 01:13N 47°33' W 122°21'0 0.0
2014-Jul-24 01:11N 47°33' W 122°21'0 0.3
2014-Jul-24 00:33N 47°33' W 122°21'0 7.7
2014-Jul-24 00:30N 47°34' W 122°21'3 3.3
2014-Jul-23 23:33N 47°36' W 122°24'0 4.3
2014-Jul-23 23:30N 47°37' W 122°24'6 6.0
2014-Jul-23 22:32N 47°42' W 122°28'4 7.3
2014-Jul-23 22:02N 47°45' W 122°27'4 7.3
2014-Jul-23 21:33N 47°49' W 122°28'0 7.8
2014-Jul-23 21:33N 47°49' W 122°28'8 7.8
2014-Jul-23 20:33N 47°56' W 122°32'1 9.9
2014-Jul-23 20:28N 47°57' W 122°33'8 8.9
2014-Jul-23 19:32N 48°04' W 122°39'7 9.4
2014-Jul-23 18:47N 48°10' W 122°45'3 9.2
2014-Jul-23 18:30N 48°11' W 122°48'1 8.5
2014-Jul-23 18:26N 48°12' W 122°48'8 8.6
2014-Jul-23 17:31N 48°20' W 122°47'9 9.5
2014-Jul-23 16:33N 48°29' W 122°45'1010.2
2014-Jul-23 15:33N 48°39' W 122°44'8 8.4
2014-Jul-23 14:33N 48°46' W 122°51'9 8.7
2014-Jul-23 13:33N 48°51' W 123°02'9 8.8
2014-Jul-23 12:33N 48°56' W 123°12'8 8.5
2014-Jul-23 11:34N 49°03' W 123°21'7 7.1
2014-Jul-23 10:33N 49°08' W 123°14'7 7.1
2014-Jul-23 09:33N 49°09' W 123°03'2 1.9
2014-Jul-23 08:33N 49°09' W 123°00'0 0.0
2014-Jul-23 07:31N 49°09' W 123°00'0 0.0
2014-Jul-23 06:31N 49°09' W 123°00'0 0.0
2014-Jul-23 05:31N 49°09' W 123°00'0 0.0
2014-Jul-23 04:31N 49°09' W 123°00'0 0.0
2014-Jul-23 03:31N 49°09' W 123°00'0 0.0
2014-Jul-23 02:31N 49°09' W 123°00'0 0.0
2014-Jul-23 01:31N 49°09' W 123°00'0 0.0
2014-Jul-23 00:31N 49°09' W 123°00'0 0.0
2014-Jul-22 23:25N 49°09' W 123°00'0 0.0
2014-Jul-22 22:31N 49°09' W 123°00'0 0.0
2014-Jul-22 21:31N 49°09' W 123°00'0 0.0
2014-Jul-22 20:34N 49°09' W 123°00'0 0.0
2014-Jul-22 19:30N 49°09' W 123°00'0 0.0
2014-Jul-22 18:30N 49°09' W 123°00'0 0.0
2014-Jul-22 17:33N 49°09' W 123°00'0 0.0
2014-Jul-22 16:33N 49°09' W 123°00'0 0.0
2014-Jul-22 15:33N 49°09' W 123°00'0 0.0
2014-Jul-22 14:33N 49°09' W 123°00'0 0.0
2014-Jul-22 13:27N 49°09' W 123°00'0 0.0
2014-Jul-22 12:33N 49°09' W 123°00'0 0.0
2014-Jul-22 11:33N 49°09' W 123°00'0 0.0
2014-Jul-22 10:33N 49°09' W 123°00'0 0.0
2014-Jul-22 09:33N 49°09' W 123°00'0 0.0
2014-Jul-22 08:33N 49°09' W 123°00'0 0.0
2014-Jul-22 07:33N 49°09' W 123°00'0 0.0
2014-Jul-22 06:33N 49°09' W 123°00'0 0.0
2014-Jul-22 05:33N 49°09' W 123°00'0 0.0
2014-Jul-22 04:33N 49°09' W 123°00'0 0.0
2014-Jul-22 03:33N 49°09' W 123°00'0 0.0
2014-Jul-22 02:33N 49°09' W 123°00'0 0.0
2014-Jul-22 01:33N 49°09' W 123°00'0 0.0
2014-Jul-22 00:33N 49°09' W 123°00'0 0.0
2014-Jul-21 23:33N 49°09' W 123°00'0 0.0
2014-Jul-21 22:33N 49°09' W 123°00'0 0.0
2014-Jul-21 21:33N 49°09' W 123°00'0 0.0
2014-Jul-21 20:33N 49°09' W 123°00'0 0.0
2014-Jul-21 20:18N 49°09' W 123°00'0 0.0
2014-Jul-21 19:33N 49°09' W 123°00'0 0.0
2014-Jul-21 18:30N 49°09' W 123°00'0 0.0
2014-Jul-21 17:27N 49°09' W 123°00'0 0.0
2014-Jul-21 16:33N 49°09' W 123°00'0 0.0
2014-Jul-21 15:33N 49°09' W 123°00'0 0.0
2014-Jul-21 14:33N 49°09' W 123°00'0 0.0
2014-Jul-21 13:33N 49°09' W 123°00'0 0.0
2014-Jul-21 12:33N 49°09' W 123°00'0 0.0
2014-Jul-21 11:33N 49°09' W 123°00'0 0.0
2014-Jul-21 10:30N 49°09' W 123°00'0 0.0
2014-Jul-21 09:33N 49°09' W 123°00'0 0.0
2014-Jul-21 08:29N 49°09' W 123°00'0 0.0
2014-Jul-21 07:32N 49°09' W 123°00'0 0.0
2014-Jul-21 06:32N 49°09' W 123°00'0 0.0
2014-Jul-21 05:32N 49°09' W 123°00'0 0.0
2014-Jul-21 04:32N 49°09' W 123°00'0 0.0
2014-Jul-21 03:32N 49°09' W 123°00'0 0.0
2014-Jul-21 02:32N 49°09' W 123°00'0 0.0
2014-Jul-21 01:32N 49°09' W 123°00'  

Dump ship's entire track history